createdAt,value
2023-03-20T00:02:37.838Z,11.09
2023-03-20T00:05:40.300Z,11.08
2023-03-20T00:08:45.108Z,11.08
2023-03-20T00:11:49.212Z,11.07
2023-03-20T00:14:51.088Z,11.06
2023-03-20T00:17:53.527Z,11.06
2023-03-20T00:20:55.140Z,11.05
2023-03-20T00:23:57.866Z,11.04
2023-03-20T00:26:59.713Z,11.03
2023-03-20T00:30:02.128Z,11.02
2023-03-20T00:33:05.451Z,11.01
2023-03-20T00:36:09.122Z,11.00
2023-03-20T00:39:10.931Z,11.00
2023-03-20T00:42:21.229Z,11.01
2023-03-20T00:45:23.737Z,10.99
2023-03-20T00:48:26.063Z,10.99
2023-03-20T00:51:28.693Z,10.98
2023-03-20T00:54:31.650Z,10.97
2023-03-20T00:58:00.118Z,10.98
2023-03-20T01:01:02.074Z,10.97
2023-03-20T01:04:12.375Z,10.96
2023-03-20T01:07:15.814Z,10.95
2023-03-20T01:10:18.260Z,10.95
2023-03-20T01:13:24.001Z,10.93
2023-03-20T01:16:26.634Z,10.92
2023-03-20T01:19:28.709Z,10.91
2023-03-20T01:22:30.844Z,10.90
2023-03-20T01:25:32.775Z,10.90
2023-03-20T01:28:35.228Z,10.89
2023-03-20T01:31:36.973Z,10.88
2023-03-20T01:34:39.122Z,10.88
2023-03-20T01:37:41.655Z,10.87
2023-03-20T01:41:03.763Z,10.86
2023-03-20T01:44:22.961Z,10.85
2023-03-20T01:47:28.573Z,10.85
2023-03-20T01:50:34.077Z,10.84
2023-03-20T01:53:46.603Z,10.84
2023-03-20T01:57:03.890Z,10.83
2023-03-20T02:00:10.101Z,10.83
2023-03-20T02:03:18.932Z,10.83
2023-03-20T02:07:00.052Z,10.83
2023-03-20T02:10:28.479Z,10.82
2023-03-20T02:13:37.712Z,10.82
2023-03-20T02:16:40.164Z,10.82
2023-03-20T02:20:49.878Z,10.82
2023-03-20T02:24:19.238Z,10.81
2023-03-20T02:27:40.232Z,10.80
2023-03-20T02:31:03.311Z,10.80
2023-03-20T02:34:18.739Z,10.80
2023-03-20T02:37:50.968Z,10.79
2023-03-20T02:41:21.133Z,10.80
2023-03-20T02:44:35.944Z,10.79
2023-03-20T02:47:52.868Z,10.79
2023-03-20T02:51:06.226Z,10.80
2023-03-20T02:54:17.525Z,10.80
2023-03-20T02:57:28.845Z,10.80
2023-03-20T03:00:37.609Z,10.79
2023-03-20T03:03:49.463Z,10.79
2023-03-20T03:06:55.224Z,10.78
2023-03-20T03:10:07.052Z,10.77
2023-03-20T03:13:14.949Z,10.76
2023-03-20T03:16:28.824Z,10.76
2023-03-20T03:19:33.493Z,10.76
2023-03-20T03:22:35.734Z,10.76
2023-03-20T03:25:40.910Z,10.76
2023-03-20T03:28:50.508Z,10.76
2023-03-20T03:31:52.535Z,10.76
2023-03-20T03:34:55.387Z,10.76
2023-03-20T03:38:00.951Z,10.76
2023-03-20T03:41:14.448Z,10.77
2023-03-20T03:44:25.948Z,10.77
2023-03-20T03:47:44.713Z,10.77
2023-03-20T03:50:56.932Z,10.78
2023-03-20T03:54:08.754Z,10.78
2023-03-20T03:57:13.294Z,10.78
2023-03-20T04:00:19.736Z,10.78
2023-03-20T04:03:28.098Z,10.78
2023-03-20T04:06:30.076Z,10.77
2023-03-20T04:09:33.025Z,10.76
2023-03-20T04:12:39.030Z,10.75
2023-03-20T04:15:44.752Z,10.74
2023-03-20T04:18:46.595Z,10.73
2023-03-20T04:21:49.376Z,10.74
2023-03-20T04:24:52.105Z,10.73
2023-03-20T04:27:54.977Z,10.73
2023-03-20T04:31:08.156Z,10.72
2023-03-20T04:34:24.277Z,10.72
2023-03-20T04:37:37.682Z,10.71
2023-03-20T04:40:43.622Z,10.71
2023-03-20T04:43:45.366Z,10.69
2023-03-20T04:46:47.164Z,10.67
2023-03-20T04:49:52.078Z,10.66
2023-03-20T04:52:54.024Z,10.64
2023-03-20T04:55:55.948Z,10.65
2023-03-20T04:58:57.937Z,10.64
2023-03-20T05:01:59.953Z,10.63
2023-03-20T05:05:02.793Z,10.63
2023-03-20T05:08:05.990Z,10.62
2023-03-20T05:11:11.182Z,10.62
2023-03-20T05:14:31.240Z,10.61
2023-03-20T05:18:09.160Z,10.61
2023-03-20T05:21:25.197Z,10.61
2023-03-20T05:24:44.763Z,10.62
2023-03-20T05:28:25.058Z,10.63
2023-03-20T05:31:42.840Z,10.63
2023-03-20T05:35:02.136Z,10.64
2023-03-20T05:38:26.941Z,10.64
2023-03-20T05:41:45.756Z,10.67
2023-03-20T05:45:06.993Z,10.68
2023-03-20T05:48:34.794Z,10.70
2023-03-20T05:51:51.705Z,10.72
2023-03-20T05:55:11.522Z,10.73
2023-03-20T05:58:34.751Z,10.75
2023-03-20T06:01:43.634Z,10.76
2023-03-20T06:05:06.401Z,10.79
2023-03-20T06:08:16.213Z,10.82
2023-03-20T06:11:18.067Z,10.83
2023-03-20T06:14:20.126Z,10.87
2023-03-20T06:17:27.156Z,10.91
2023-03-20T06:20:33.890Z,10.95
2023-03-20T06:23:37.245Z,11.00
2023-03-20T06:26:39.626Z,11.03
2023-03-20T06:29:44.656Z,11.07
2023-03-20T06:32:50.516Z,11.09
2023-03-20T06:35:53.175Z,11.11
2023-03-20T06:38:56.319Z,11.13
2023-03-20T06:41:58.798Z,11.14
2023-03-20T06:45:04.287Z,11.14
2023-03-20T06:48:24.341Z,11.15
2023-03-20T06:51:26.567Z,11.15
2023-03-20T06:54:28.554Z,11.14
2023-03-20T06:57:30.693Z,11.15
2023-03-20T07:00:51.453Z,11.14
2023-03-20T07:03:58.128Z,11.14
2023-03-20T07:07:24.712Z,11.14
2023-03-20T07:10:43.799Z,11.14
2023-03-20T07:13:49.747Z,11.14
2023-03-20T07:17:14.924Z,11.14
2023-03-20T07:20:19.333Z,11.14
2023-03-20T07:23:21.337Z,11.13
2023-03-20T07:26:23.434Z,11.12
2023-03-20T07:29:25.404Z,11.12
2023-03-20T07:35:59.017Z,11.18
2023-03-20T07:39:46.988Z,11.23
2023-03-20T07:43:24.445Z,11.31
2023-03-20T07:47:10.045Z,11.40
2023-03-20T07:55:35.843Z,11.58
2023-03-20T07:59:01.668Z,11.63
2023-03-20T08:02:05.365Z,11.65
2023-03-20T08:05:09.621Z,11.64
2023-03-20T08:08:16.622Z,11.62
2023-03-20T08:32:07.357Z,11.45
2023-03-20T08:35:29.747Z,11.41
2023-03-20T08:48:17.198Z,11.29
2023-03-20T09:16:14.835Z,11.32
2023-03-20T09:24:50.941Z,11.44
2023-03-20T09:28:12.063Z,11.47
2023-03-20T09:35:33.628Z,11.52
2023-03-20T09:38:36.840Z,11.53
2023-03-20T09:41:53.144Z,11.54
2023-03-20T09:45:36.619Z,11.54
2023-03-20T09:48:48.779Z,11.55
2023-03-20T09:51:56.537Z,11.56
2023-03-20T09:55:08.061Z,11.56
2023-03-20T09:58:25.782Z,11.57
2023-03-20T10:01:47.278Z,11.59
2023-03-20T10:04:54.891Z,11.62
2023-03-20T10:08:03.371Z,11.65
2023-03-20T10:11:40.500Z,11.69
2023-03-20T10:15:02.130Z,11.71
2023-03-20T10:18:17.880Z,11.73
2023-03-20T10:21:32.743Z,11.73
2023-03-20T10:24:35.912Z,11.74
2023-03-20T10:27:44.227Z,11.76
2023-03-20T10:31:18.141Z,11.78
2023-03-20T10:34:45.575Z,11.93
2023-03-20T10:38:02.515Z,11.98
2023-03-20T10:41:13.951Z,12.00
2023-03-20T10:44:27.800Z,12.03
2023-03-20T10:47:35.643Z,12.04
2023-03-20T10:50:47.521Z,12.07
2023-03-20T10:54:02.363Z,12.10
2023-03-20T10:57:06.945Z,12.14
2023-03-20T11:00:20.088Z,12.18
2023-03-20T11:03:30.621Z,12.22
2023-03-20T11:06:42.323Z,12.27
2023-03-20T11:09:45.748Z,12.33
2023-03-20T11:13:25.227Z,12.37
2023-03-20T11:16:34.547Z,12.42
2023-03-20T11:19:50.726Z,12.46
2023-03-20T11:23:04.816Z,12.49
2023-03-20T11:26:18.250Z,12.51
2023-03-20T11:29:46.403Z,12.54
2023-03-20T11:32:56.745Z,12.55
2023-03-20T11:36:29.645Z,12.54
2023-03-20T11:39:34.031Z,12.52
2023-03-20T11:42:37.420Z,12.52
2023-03-20T11:45:45.485Z,12.52
2023-03-20T11:49:20.929Z,12.51
2023-03-20T11:52:32.777Z,12.49
2023-03-20T11:55:36.234Z,12.47
2023-03-20T11:59:04.968Z,12.45
2023-03-20T12:02:22.667Z,12.43
2023-03-20T12:05:39.977Z,12.41
2023-03-20T12:08:47.683Z,12.41
2023-03-20T12:11:58.959Z,12.42
2023-03-20T12:15:21.745Z,12.45
2023-03-20T12:18:31.884Z,12.47
2023-03-20T12:22:04.605Z,12.49
2023-03-20T12:25:19.153Z,12.52
2023-03-20T12:28:47.052Z,12.55
2023-03-20T12:32:18.311Z,12.58
2023-03-20T12:35:29.902Z,12.60
2023-03-20T12:38:37.113Z,12.62
2023-03-20T12:41:59.006Z,12.63
2023-03-20T12:45:35.648Z,12.65
2023-03-20T12:49:08.647Z,12.67
2023-03-20T12:52:26.314Z,12.68
2023-03-20T12:55:56.320Z,12.67
2023-03-20T12:59:12.504Z,12.65
2023-03-20T13:02:43.552Z,12.63
2023-03-20T13:05:58.338Z,12.59
2023-03-20T13:09:18.485Z,12.58
2023-03-20T13:12:37.376Z,12.57
2023-03-20T13:16:22.382Z,12.58
2023-03-20T13:19:35.120Z,12.59
2023-03-20T13:22:54.935Z,12.60
2023-03-20T13:26:17.536Z,12.62
2023-03-20T13:29:49.816Z,12.62
2023-03-20T13:33:24.362Z,12.63
2023-03-20T13:36:56.483Z,12.64
2023-03-20T13:44:01.508Z,12.66
2023-03-20T13:47:19.697Z,12.67
2023-03-20T13:50:50.580Z,12.67
2023-03-20T13:54:12.092Z,12.66
2023-03-20T13:57:36.670Z,12.67
2023-03-20T14:01:00.253Z,12.66
2023-03-20T14:04:03.984Z,12.64
2023-03-20T14:07:38.900Z,12.63
2023-03-20T14:10:43.956Z,12.61
2023-03-20T14:13:56.630Z,12.59
2023-03-20T14:17:09.721Z,12.58
2023-03-20T14:20:27.713Z,12.57
2023-03-20T14:23:56.471Z,12.55
2023-03-20T14:27:01.553Z,12.54
2023-03-20T14:30:51.211Z,12.55
2023-03-20T14:34:08.987Z,12.56
2023-03-20T14:41:30.453Z,12.58
2023-03-20T14:44:48.086Z,12.59
2023-03-20T14:48:27.737Z,12.60
2023-03-20T14:51:44.283Z,12.62
2023-03-20T14:54:54.303Z,12.64
2023-03-20T14:58:02.320Z,12.65
2023-03-20T15:01:08.783Z,12.67
2023-03-20T15:04:38.642Z,12.68
2023-03-20T15:07:42.574Z,12.71
2023-03-20T15:10:57.340Z,12.72
2023-03-20T15:14:04.412Z,12.74
2023-03-20T15:17:17.898Z,12.75
2023-03-20T15:20:26.419Z,12.76
2023-03-20T15:23:29.656Z,12.77
2023-03-20T15:26:35.327Z,12.78
2023-03-20T15:29:43.225Z,12.78
2023-03-20T15:32:52.951Z,12.79
2023-03-20T15:35:56.747Z,12.79
2023-03-20T15:39:27.499Z,12.78
2023-03-20T15:42:30.770Z,12.78
2023-03-20T15:45:38.178Z,12.78
2023-03-20T15:48:46.970Z,12.77
2023-03-20T15:51:52.310Z,12.78
2023-03-20T15:54:58.504Z,12.78
2023-03-20T15:58:02.880Z,12.79
2023-03-20T16:01:08.132Z,12.80
2023-03-20T16:04:18.851Z,12.80
2023-03-20T16:07:27.642Z,12.79
2023-03-20T16:10:36.567Z,12.81
2023-03-20T16:13:44.011Z,12.81
2023-03-20T16:16:49.474Z,12.79
2023-03-20T16:19:53.138Z,12.77
2023-03-20T16:23:02.509Z,12.75
2023-03-20T16:26:08.603Z,12.72
2023-03-20T16:29:15.085Z,12.69
2023-03-20T16:32:26.975Z,12.64
2023-03-20T16:35:37.300Z,12.60
2023-03-20T16:38:40.815Z,12.57
2023-03-20T16:41:45.663Z,12.53
2023-03-20T16:44:55.025Z,12.49
2023-03-20T16:48:10.124Z,12.45
2023-03-20T16:51:32.326Z,12.40
2023-03-20T16:54:37.555Z,12.34
2023-03-20T16:57:42.213Z,12.27
2023-03-20T17:00:57.272Z,12.19
2023-03-20T17:04:22.302Z,12.13
2023-03-20T17:07:28.209Z,12.05
2023-03-20T17:10:31.394Z,11.96
2023-03-20T17:13:34.643Z,11.89
2023-03-20T17:16:40.221Z,11.83
2023-03-20T17:19:43.712Z,11.78
2023-03-20T17:22:47.366Z,11.74
2023-03-20T17:25:51.097Z,11.71
2023-03-20T17:28:54.887Z,11.68
2023-03-20T17:31:58.108Z,11.65
2023-03-20T17:35:01.345Z,11.63
2023-03-20T17:38:04.471Z,11.60
2023-03-20T17:41:14.795Z,11.60
2023-03-20T17:44:17.971Z,11.59
2023-03-20T17:47:23.429Z,11.58
2023-03-20T17:50:27.557Z,11.57
2023-03-20T17:53:31.458Z,11.57
2023-03-20T17:56:34.712Z,11.56
2023-03-20T17:59:37.836Z,11.55
2023-03-20T18:02:41.012Z,11.56
2023-03-20T18:05:46.086Z,11.57
2023-03-20T18:08:49.166Z,11.56
2023-03-20T18:11:52.166Z,11.56
2023-03-20T18:14:55.474Z,11.54
2023-03-20T18:17:58.898Z,11.54
2023-03-20T18:21:03.015Z,11.54
2023-03-20T18:24:06.449Z,11.53
2023-03-20T18:27:11.000Z,11.52
2023-03-20T18:30:20.256Z,11.52
2023-03-20T18:33:27.586Z,11.51
2023-03-20T18:36:30.720Z,11.50
2023-03-20T18:39:33.789Z,11.49
2023-03-20T18:42:36.946Z,11.47
2023-03-20T18:45:40.103Z,11.47
2023-03-20T18:48:43.730Z,11.45
2023-03-20T18:51:46.979Z,11.44
2023-03-20T18:54:51.975Z,11.43
2023-03-20T18:57:56.569Z,11.42
2023-03-20T19:01:00.457Z,11.40
2023-03-20T19:04:03.734Z,11.39
2023-03-20T19:07:07.833Z,11.38
2023-03-20T19:10:24.801Z,11.37
2023-03-20T19:13:27.917Z,11.36
2023-03-20T19:16:35.154Z,11.35
2023-03-20T19:19:38.336Z,11.34
2023-03-20T19:22:41.723Z,11.34
2023-03-20T19:25:47.112Z,11.34
2023-03-20T19:28:50.947Z,11.33
2023-03-20T19:31:54.182Z,11.31
2023-03-20T19:38:21.673Z,11.28
2023-03-20T19:41:25.506Z,11.26
2023-03-20T19:44:28.640Z,11.25
2023-03-20T19:47:31.903Z,11.24
2023-03-20T19:50:41.364Z,11.23
2023-03-20T19:53:46.330Z,11.22
2023-03-20T19:56:49.521Z,11.23
2023-03-20T19:59:52.968Z,11.21
2023-03-20T20:02:56.520Z,11.22
2023-03-20T20:06:03.777Z,11.22
2023-03-20T20:09:06.957Z,11.22
2023-03-20T20:12:10.202Z,11.22
2023-03-20T20:15:14.210Z,11.22
2023-03-20T20:18:18.787Z,11.22
2023-03-20T20:22:13.304Z,11.23
2023-03-20T20:24:45.091Z,11.24
2023-03-20T20:27:48.792Z,11.23
2023-03-20T20:30:55.784Z,11.23
2023-03-20T20:34:25.231Z,11.24
2023-03-20T20:38:21.212Z,11.23
2023-03-20T20:40:45.293Z,11.23
2023-03-20T20:44:14.658Z,11.22
2023-03-20T20:47:11.994Z,11.21
2023-03-20T20:50:18.829Z,11.21
2023-03-20T20:53:21.944Z,11.19
2023-03-20T20:56:25.042Z,11.17
2023-03-20T20:59:28.455Z,11.14
2023-03-20T21:02:32.884Z,11.13
2023-03-20T21:05:37.849Z,11.11
2023-03-20T21:08:43.906Z,11.10
2023-03-20T21:11:49.794Z,11.09
2023-03-20T21:14:53.732Z,11.08
2023-03-20T21:18:01.447Z,11.08
2023-03-20T21:21:11.047Z,11.08
2023-03-20T21:24:31.171Z,11.07
2023-03-20T21:27:36.720Z,11.08
2023-03-20T21:31:00.021Z,11.07
2023-03-20T21:34:06.161Z,11.07
2023-03-20T21:38:15.803Z,11.07
2023-03-20T21:40:32.912Z,11.07
2023-03-20T21:43:36.292Z,11.07
2023-03-20T21:47:09.694Z,11.06
2023-03-20T22:01:10.950Z,11.04
2023-03-20T22:04:37.647Z,11.02
2023-03-20T22:07:52.209Z,11.01
2023-03-20T22:17:56.121Z,10.99
2023-03-20T22:34:53.757Z,10.91
2023-03-20T22:44:58.496Z,10.87
2023-03-20T22:47:42.312Z,10.86
2023-03-20T22:50:50.943Z,10.85
2023-03-20T22:53:54.070Z,10.83
2023-03-20T22:56:57.185Z,10.83
2023-03-20T23:00:00.325Z,10.84
2023-03-20T23:03:37.762Z,10.84
2023-03-20T23:06:28.627Z,10.85
2023-03-20T23:09:31.745Z,10.87
2023-03-20T23:12:34.780Z,10.88
2023-03-20T23:15:37.971Z,10.89
2023-03-20T23:18:41.296Z,10.88
2023-03-20T23:21:44.376Z,10.89
2023-03-20T23:24:47.417Z,10.89
2023-03-20T23:27:50.852Z,10.89
2023-03-20T23:31:07.615Z,10.89
2023-03-20T23:34:13.537Z,10.89
2023-03-20T23:37:16.661Z,10.89
2023-03-20T23:40:19.897Z,10.89
2023-03-20T23:43:23.063Z,10.89
2023-03-20T23:46:26.222Z,10.88
2023-03-20T23:49:29.470Z,10.89
2023-03-20T23:52:35.155Z,10.88
2023-03-20T23:55:40.397Z,10.87
2023-03-20T23:58:54.843Z,10.86
